Time;durP1;ratioP1;P1;durP2;ratioP2;P2;SDS_P1;SDS_P2;PMS_P1;PMS_P2;Temp;Humidity;BMP_temperature;BMP_pressure;BME280_temperature;BME280_humidity;BME280_pressure;Samples;Min_cycle;Max_cycle;Signal;HPM_P1;HPM_P2
2023/12/22 00:01:43;;;;;;;12.13;6.80;;;;;;;;;;5052281;28;20079;-58
2023/12/22 00:04:09;;;;;;;13.98;7.22;;;;;;;;;;5055729;28;20028;-56
2023/12/22 00:06:35;;;;;;;12.07;6.80;;;;;;;;;;5058447;28;20017;-58
2023/12/22 00:09:01;;;;;;;11.73;6.80;;;;;;;;;;5046681;28;20114;-59
2023/12/22 00:11:27;;;;;;;17.90;9.02;;;;;;;;;;5060009;28;20119;-57
2023/12/22 00:13:53;;;;;;;22.30;8.07;;;;;;;;;;5059297;28;20112;-54
2023/12/22 00:16:19;;;;;;;12.73;7.65;;;;;;;;;;5068023;28;20074;-58
2023/12/22 00:18:45;;;;;;;17.73;7.60;;;;;;;;;;5050777;28;20465;-56
2023/12/22 00:21:11;;;;;;;11.07;6.50;;;;;;;;;;5051389;28;20055;-55
2023/12/22 00:23:38;;;;;;;11.40;6.80;;;;;;;;;;5049996;28;20029;-58
2023/12/22 00:26:04;;;;;;;16.38;7.32;;;;;;;;;;5049516;28;20048;-58
2023/12/22 00:28:31;;;;;;;14.55;7.50;;;;;;;;;;5049427;28;20068;-56
2023/12/22 00:30:58;;;;;;;15.35;8.30;;;;;;;;;;5053047;28;20116;-55
2023/12/22 00:33:24;;;;;;;11.30;6.68;;;;;;;;;;5058755;28;20123;-57
2023/12/22 00:35:50;;;;;;;11.57;6.90;;;;;;;;;;5059808;28;20114;-55
2023/12/22 00:38:16;;;;;;;11.55;6.78;;;;;;;;;;5049123;28;20200;-56
2023/12/22 00:40:42;;;;;;;11.50;6.70;;;;;;;;;;5049712;28;20047;-60
2023/12/22 00:43:08;;;;;;;20.45;7.60;;;;;;;;;;5037415;28;20042;-55
2023/12/22 00:45:34;;;;;;;15.50;8.15;;;;;;;;;;5048826;28;20045;-53
2023/12/22 00:48:00;;;;;;;13.50;7.10;;;;;;;;;;5053061;28;20490;-55
2023/12/22 00:50:26;;;;;;;11.07;6.45;;;;;;;;;;5051940;28;20114;-54
2023/12/22 00:52:52;;;;;;;15.32;7.30;;;;;;;;;;5051590;28;20025;-55
2023/12/22 00:55:18;;;;;;;13.57;7.88;;;;;;;;;;5051587;28;20025;-55
2023/12/22 00:57:44;;;;;;;14.43;7.30;;;;;;;;;;5051711;28;20081;-54
2023/12/22 01:00:12;;;;;;;20.05;7.20;;;;;;;;;;5051811;28;20032;-56
2023/12/22 01:02:38;;;;;;;15.15;7.63;;;;;;;;;;5051618;28;20070;-56
2023/12/22 01:05:04;;;;;;;13.20;7.40;;;;;;;;;;5051702;28;20064;-50
2023/12/22 01:07:30;;;;;;;11.30;6.50;;;;;;;;;;5050673;28;20139;-56
2023/12/22 01:10:01;;;;;;;23.23;6.82;;;;;;;;;;5050926;28;20028;-56
2023/12/22 01:12:28;;;;;;;11.80;6.60;;;;;;;;;;5051865;28;20106;-56
2023/12/22 01:14:54;;;;;;;11.20;6.60;;;;;;;;;;5052657;28;20017;-55
2023/12/22 01:17:20;;;;;;;11.35;6.80;;;;;;;;;;5052157;28;20097;-55
2023/12/22 01:19:46;;;;;;;12.40;7.10;;;;;;;;;;5052012;28;20447;-57
2023/12/22 01:22:12;;;;;;;11.68;6.88;;;;;;;;;;5051148;28;20032;-54
2023/12/22 01:24:40;;;;;;;12.55;6.55;;;;;;;;;;5051225;28;20027;-56
2023/12/22 01:27:07;;;;;;;14.93;7.45;;;;;;;;;;5051925;28;20028;-55
2023/12/22 01:29:33;;;;;;;13.13;6.97;;;;;;;;;;5051939;28;20394;-56
2023/12/22 01:31:59;;;;;;;17.65;9.95;;;;;;;;;;5030160;28;20021;-54
2023/12/22 01:34:24;;;;;;;16.08;7.53;;;;;;;;;;5051085;28;20031;-56
2023/12/22 01:36:50;;;;;;;13.27;8.98;;;;;;;;;;5051445;28;20040;-56
2023/12/22 01:39:17;;;;;;;13.98;7.35;;;;;;;;;;5031788;28;20251;-54
2023/12/22 01:41:43;;;;;;;11.63;6.80;;;;;;;;;;5050844;28;20029;-54
2023/12/22 01:44:09;;;;;;;11.90;7.00;;;;;;;;;;5051151;28;20017;-54
2023/12/22 01:46:36;;;;;;;11.60;6.80;;;;;;;;;;5051344;28;20104;-53
2023/12/22 01:49:02;;;;;;;22.10;8.25;;;;;;;;;;5050905;28;20076;-57
2023/12/22 01:51:33;;;;;;;13.95;7.47;;;;;;;;;;5050990;28;20383;-57
2023/12/22 01:53:59;;;;;;;11.57;6.80;;;;;;;;;;5051002;28;20039;-56
2023/12/22 01:56:26;;;;;;;11.50;6.72;;;;;;;;;;5050810;28;20025;-55
2023/12/22 01:58:53;;;;;;;11.60;6.80;;;;;;;;;;5051253;28;20029;-55
2023/12/22 02:01:20;;;;;;;11.75;6.63;;;;;;;;;;5050810;28;20021;-56
2023/12/22 02:03:47;;;;;;;14.52;6.60;;;;;;;;;;5051167;28;20028;-53
2023/12/22 02:06:13;;;;;;;11.93;7.00;;;;;;;;;;5050920;28;20065;-55
2023/12/22 02:08:39;;;;;;;16.15;9.27;;;;;;;;;;5051301;28;20024;-56
2023/12/22 02:11:05;;;;;;;12.05;7.00;;;;;;;;;;5050896;28;20047;-54
2023/12/22 02:13:31;;;;;;;11.90;6.80;;;;;;;;;;5051152;28;20367;-53
2023/12/22 02:16:01;;;;;;;19.83;8.13;;;;;;;;;;5050971;28;20068;-55
2023/12/22 02:18:32;;;;;;;15.38;6.82;;;;;;;;;;5051022;28;20025;-57
2023/12/22 02:20:58;;;;;;;11.45;6.70;;;;;;;;;;5050276;28;20142;-55
2023/12/22 02:23:24;;;;;;;12.40;7.45;;;;;;;;;;5032380;28;20100;-56
2023/12/22 02:25:52;;;;;;;17.48;7.30;;;;;;;;;;5050558;28;20489;-58
2023/12/22 02:28:18;;;;;;;;;;;;;;;;;;5051797;28;20112;-56
2023/12/22 02:30:50;;;;;;;11.23;6.60;;;;;;;;;;5033975;28;19913;-52
2023/12/22 02:33:17;;;;;;;21.75;9.82;;;;;;;;;;5050339;28;20501;-57
2023/12/22 02:35:43;;;;;;;12.00;7.00;;;;;;;;;;5045187;28;20032;-52
2023/12/22 02:38:10;;;;;;;12.00;6.93;;;;;;;;;;5030205;28;20041;-55
2023/12/22 02:40:36;;;;;;;11.55;6.75;;;;;;;;;;5050604;28;20043;-53
2023/12/22 02:43:03;;;;;;;12.10;6.90;;;;;;;;;;5029420;28;20414;-52
2023/12/22 02:45:30;;;;;;;15.75;7.30;;;;;;;;;;5042441;28;20045;-53
2023/12/22 02:47:56;;;;;;;11.35;6.60;;;;;;;;;;5050917;28;20029;-55
2023/12/22 02:50:22;;;;;;;13.73;7.63;;;;;;;;;;5050691;28;20036;-55
2023/12/22 02:52:48;;;;;;;11.93;6.90;;;;;;;;;;5050630;28;20024;-56
2023/12/22 02:55:14;;;;;;;11.68;7.10;;;;;;;;;;5050590;28;20501;-54
2023/12/22 02:57:40;;;;;;;11.25;6.55;;;;;;;;;;5050406;28;20039;-57
2023/12/22 03:00:07;;;;;;;11.90;7.10;;;;;;;;;;5050322;28;20084;-54
2023/12/22 03:02:32;;;;;;;13.18;7.07;;;;;;;;;;5050742;28;20208;-57
2023/12/22 03:04:58;;;;;;;12.13;7.30;;;;;;;;;;5029098;28;20117;-57
2023/12/22 03:07:24;;;;;;;13.30;6.88;;;;;;;;;;5049311;28;20043;-54
2023/12/22 03:09:50;;;;;;;11.73;6.80;;;;;;;;;;5029257;28;20033;-54
2023/12/22 03:12:16;;;;;;;11.50;6.68;;;;;;;;;;5048841;28;20475;-57
2023/12/22 03:14:42;;;;;;;11.90;6.93;;;;;;;;;;5050173;28;20111;-55
2023/12/22 03:17:10;;;;;;;11.50;6.70;;;;;;;;;;5030214;28;20040;-59
2023/12/22 03:19:36;;;;;;;11.30;6.60;;;;;;;;;;5029213;28;20025;-54
2023/12/22 03:22:02;;;;;;;10.82;6.32;;;;;;;;;;5045293;28;20029;-55
2023/12/22 03:24:28;;;;;;;11.05;6.45;;;;;;;;;;5050207;28;20032;-51
2023/12/22 03:26:55;;;;;;;11.20;6.50;;;;;;;;;;5028900;28;20395;-54
2023/12/22 03:29:21;;;;;;;10.82;6.32;;;;;;;;;;5049347;28;20083;-56
2023/12/22 03:31:47;;;;;;;10.77;6.30;;;;;;;;;;5029174;28;20676;-54
2023/12/22 03:34:13;;;;;;;11.60;6.78;;;;;;;;;;5049129;28;20025;-55
2023/12/22 03:36:39;;;;;;;11.63;6.70;;;;;;;;;;5054080;28;20514;-57
2023/12/22 03:39:05;;;;;;;12.50;7.53;;;;;;;;;;5032057;28;20025;-57
2023/12/22 03:41:31;;;;;;;13.00;7.60;;;;;;;;;;5032282;28;20102;-56
2023/12/22 03:43:58;;;;;;;13.38;8.00;;;;;;;;;;5047824;28;20032;-56
2023/12/22 03:46:24;;;;;;;14.32;8.00;;;;;;;;;;5050776;28;20084;-57
2023/12/22 03:48:53;;;;;;;15.45;8.82;;;;;;;;;;5050809;28;20040;-57
2023/12/22 03:51:19;;;;;;;13.25;7.85;;;;;;;;;;5050547;28;20032;-56
2023/12/22 03:53:45;;;;;;;24.75;16.58;;;;;;;;;;5050633;28;20021;-53
2023/12/22 03:56:11;;;;;;;12.75;7.40;;;;;;;;;;5029664;28;20029;-57
2023/12/22 03:58:37;;;;;;;12.73;7.35;;;;;;;;;;5050326;28;20052;-54
2023/12/22 04:01:04;;;;;;;12.30;7.15;;;;;;;;;;5050320;28;20061;-56
2023/12/22 04:03:30;;;;;;;12.20;7.10;;;;;;;;;;5042783;28;20588;-53
2023/12/22 04:05:56;;;;;;;12.63;7.30;;;;;;;;;;5050052;28;20104;-53
2023/12/22 04:08:22;;;;;;;11.90;6.90;;;;;;;;;;5050343;28;20113;-57
2023/12/22 04:10:48;;;;;;;12.00;7.00;;;;;;;;;;5050104;28;20048;-55
2023/12/22 04:13:14;;;;;;;12.50;7.30;;;;;;;;;;5049677;28;20033;-54
2023/12/22 04:15:40;;;;;;;11.93;7.07;;;;;;;;;;5028924;28;20085;-55
2023/12/22 04:18:06;;;;;;;12.25;7.10;;;;;;;;;;5046933;28;20033;-57
2023/12/22 04:20:32;;;;;;;15.90;7.63;;;;;;;;;;5049673;28;20032;-56
2023/12/22 04:22:58;;;;;;;12.10;7.10;;;;;;;;;;5050552;28;20040;-56
2023/12/22 04:25:25;;;;;;;12.32;7.20;;;;;;;;;;5050393;28;20089;-56
2023/12/22 04:27:51;;;;;;;12.20;7.20;;;;;;;;;;5050463;28;20021;-57
2023/12/22 04:30:17;;;;;;;11.80;6.80;;;;;;;;;;5030427;28;20033;-55
2023/12/22 04:32:43;;;;;;;12.85;7.63;;;;;;;;;;5049653;28;20023;-58
2023/12/22 04:35:09;;;;;;;22.08;7.20;;;;;;;;;;5050274;28;20056;-59
2023/12/22 04:37:35;;;;;;;11.90;6.90;;;;;;;;;;5054724;28;20378;-55
2023/12/22 04:40:02;;;;;;;12.00;6.97;;;;;;;;;;5038889;28;20105;-54
2023/12/22 04:42:28;;;;;;;11.80;6.90;;;;;;;;;;5041898;28;20052;-56
2023/12/22 04:44:54;;;;;;;11.40;6.70;;;;;;;;;;5053121;28;20041;-52
2023/12/22 04:47:20;;;;;;;12.50;7.30;;;;;;;;;;5052737;28;20027;-55
2023/12/22 04:49:46;;;;;;;12.40;7.20;;;;;;;;;;5053386;28;20036;-55
2023/12/22 04:52:12;;;;;;;12.40;7.20;;;;;;;;;;5052970;28;20044;-52
2023/12/22 04:54:39;;;;;;;11.75;6.85;;;;;;;;;;5053144;28;20093;-56
2023/12/22 04:57:05;;;;;;;13.30;7.60;;;;;;;;;;5053080;28;20064;-53
2023/12/22 04:59:31;;;;;;;12.07;7.03;;;;;;;;;;5032089;28;20407;-54
2023/12/22 05:01:57;;;;;;;12.68;7.35;;;;;;;;;;5048143;28;20049;-55
2023/12/22 05:04:23;;;;;;;12.10;7.00;;;;;;;;;;5053218;28;20021;-52
2023/12/22 05:06:49;;;;;;;12.23;7.10;;;;;;;;;;5052921;28;20051;-57
2023/12/22 05:09:15;;;;;;;12.50;7.30;;;;;;;;;;5053335;28;20025;-55
2023/12/22 05:11:41;;;;;;;12.80;7.60;;;;;;;;;;5056216;28;20024;-53
2023/12/22 05:14:07;;;;;;;12.40;7.18;;;;;;;;;;5050207;28;20033;-57
2023/12/22 05:16:33;;;;;;;19.67;7.70;;;;;;;;;;5057430;28;20113;-55
2023/12/22 05:18:59;;;;;;;17.83;7.80;;;;;;;;;;5031354;28;20022;-55
2023/12/22 05:21:25;;;;;;;12.90;7.60;;;;;;;;;;5058020;28;20021;-54
2023/12/22 05:23:51;;;;;;;13.10;7.82;;;;;;;;;;5032925;28;20022;-54
2023/12/22 05:26:18;;;;;;;12.32;7.18;;;;;;;;;;5041413;28;20510;-54
2023/12/22 05:28:44;;;;;;;13.98;7.50;;;;;;;;;;5046808;28;20578;-55
2023/12/22 05:31:10;;;;;;;13.85;8.43;;;;;;;;;;5060200;28;20109;-56
2023/12/22 05:33:36;;;;;;;13.45;7.80;;;;;;;;;;5045561;28;20491;-56
2023/12/22 05:36:03;;;;;;;13.30;7.40;;;;;;;;;;5061217;28;20060;-54
2023/12/22 05:38:29;;;;;;;13.27;7.80;;;;;;;;;;5045209;28;20021;-55
2023/12/22 05:40:55;;;;;;;13.25;7.85;;;;;;;;;;5059473;28;20032;-55
2023/12/22 05:43:21;;;;;;;14.80;7.90;;;;;;;;;;5035182;28;20112;-56
2023/12/22 05:45:47;;;;;;;13.35;8.65;;;;;;;;;;5047467;28;20029;-51
2023/12/22 05:48:13;;;;;;;17.35;8.10;;;;;;;;;;5053025;28;20108;-58
2023/12/22 05:50:39;;;;;;;13.35;7.80;;;;;;;;;;5053697;28;20551;-51
2023/12/22 05:53:05;;;;;;;13.32;7.90;;;;;;;;;;5053345;28;20098;-51
2023/12/22 05:55:31;;;;;;;14.57;7.90;;;;;;;;;;5055669;28;20394;-52
2023/12/22 05:57:57;;;;;;;12.93;7.82;;;;;;;;;;5041885;28;20030;-53
2023/12/22 06:00:23;;;;;;;21.88;8.10;;;;;;;;;;5035233;28;20036;-54
2023/12/22 06:02:49;;;;;;;12.88;7.45;;;;;;;;;;5052048;28;20027;-53
2023/12/22 06:05:15;;;;;;;12.77;7.78;;;;;;;;;;5052009;28;20104;-55
2023/12/22 06:07:41;;;;;;;12.90;7.50;;;;;;;;;;5052179;28;20020;-55
2023/12/22 06:10:09;;;;;;;15.77;9.18;;;;;;;;;;5052692;28;20037;-57
2023/12/22 06:12:35;;;;;;;14.13;7.80;;;;;;;;;;5047485;28;20467;-52
2023/12/22 06:15:01;;;;;;;16.42;9.18;;;;;;;;;;5048227;28;20029;-56
2023/12/22 06:17:30;;;;;;;13.50;8.32;;;;;;;;;;5049168;28;20024;-55
2023/12/22 06:19:56;;;;;;;14.88;8.13;;;;;;;;;;5032325;28;20476;-52
2023/12/22 06:22:22;;;;;;;13.15;7.70;;;;;;;;;;5033125;28;20112;-54
2023/12/22 06:24:48;;;;;;;13.18;7.90;;;;;;;;;;5030670;28;20025;-55
2023/12/22 06:27:14;;;;;;;13.07;7.60;;;;;;;;;;5048168;28;20032;-56
2023/12/22 06:29:41;;;;;;;13.07;7.63;;;;;;;;;;5032135;28;20048;-53
2023/12/22 06:32:07;;;;;;;14.70;7.70;;;;;;;;;;5048499;28;20134;-56
2023/12/22 06:34:33;;;;;;;12.80;7.40;;;;;;;;;;5051726;28;20098;-54
2023/12/22 06:36:59;;;;;;;19.52;9.25;;;;;;;;;;5052672;28;20176;-56
2023/12/22 06:39:25;;;;;;;12.70;7.40;;;;;;;;;;5050789;28;20067;-54
2023/12/22 06:41:51;;;;;;;13.45;8.35;;;;;;;;;;5051820;28;20566;-53
2023/12/22 06:44:17;;;;;;;19.52;7.90;;;;;;;;;;5051901;28;20048;-56
2023/12/22 06:46:43;;;;;;;12.60;7.40;;;;;;;;;;5054932;28;20174;-57
2023/12/22 06:49:09;;;;;;;15.25;9.55;;;;;;;;;;5041014;28;20017;-55
2023/12/22 06:51:35;;;;;;;15.15;7.60;;;;;;;;;;5056742;28;20451;-54
2023/12/22 06:54:01;;;;;;;13.15;7.90;;;;;;;;;;5047857;28;20051;-54
2023/12/22 06:56:28;;;;;;;12.25;7.15;;;;;;;;;;5051330;28;20036;-56
2023/12/22 06:58:57;;;;;;;12.57;7.35;;;;;;;;;;5051189;28;20029;-55
2023/12/22 07:01:26;;;;;;;13.30;7.90;;;;;;;;;;5050978;28;20025;-57
2023/12/22 07:03:52;;;;;;;12.88;7.43;;;;;;;;;;5051454;28;20386;-56
2023/12/22 07:06:18;;;;;;;12.50;7.20;;;;;;;;;;5014688;28;20025;-55
2023/12/22 07:08:44;;;;;;;13.10;7.70;;;;;;;;;;5050988;28;20095;-55
2023/12/22 07:11:11;;;;;;;12.73;7.43;;;;;;;;;;5051007;28;20072;-54
2023/12/22 07:13:37;;;;;;;13.10;7.70;;;;;;;;;;5051118;28;20028;-55
2023/12/22 07:16:03;;;;;;;14.30;8.40;;;;;;;;;;5030655;28;20122;-54
2023/12/22 07:18:32;;;;;;;13.07;7.60;;;;;;;;;;5036975;28;20122;-57
2023/12/22 07:20:59;;;;;;;13.05;7.60;;;;;;;;;;5058092;28;20089;-57
2023/12/22 07:23:25;;;;;;;12.63;7.40;;;;;;;;;;5032557;28;20060;-57
2023/12/22 07:25:51;;;;;;;12.90;7.50;;;;;;;;;;5044080;28;20079;-55
2023/12/22 07:28:17;;;;;;;13.30;7.88;;;;;;;;;;5049481;28;20021;-57
2023/12/22 07:30:43;;;;;;;13.18;7.70;;;;;;;;;;5051128;28;20376;-61
2023/12/22 07:33:09;;;;;;;14.43;7.93;;;;;;;;;;5051523;28;20100;-54
2023/12/22 07:35:35;;;;;;;14.00;9.52;;;;;;;;;;5043258;28;20462;-57
2023/12/22 07:38:04;;;;;;;13.45;8.18;;;;;;;;;;5051024;28;20033;-55
2023/12/22 07:40:30;;;;;;;15.85;9.07;;;;;;;;;;5050467;28;20025;-58
2023/12/22 07:42:57;;;;;;;13.70;8.40;;;;;;;;;;5029512;28;20033;-55
2023/12/22 07:45:23;;;;;;;14.40;10.50;;;;;;;;;;5049202;28;20124;-51
2023/12/22 07:47:49;;;;;;;21.45;19.45;;;;;;;;;;5029299;28;20037;-56
2023/12/22 07:50:15;;;;;;;32.85;29.85;;;;;;;;;;5046525;28;20021;-52
2023/12/22 07:52:41;;;;;;;34.45;31.25;;;;;;;;;;5034658;28;20031;-53
2023/12/22 07:55:10;;;;;;;37.92;34.35;;;;;;;;;;5049145;28;20056;-53
2023/12/22 07:57:36;;;;;;;39.28;35.85;;;;;;;;;;5049408;28;20017;-58
2023/12/22 08:00:03;;;;;;;38.50;34.95;;;;;;;;;;5048355;28;20057;-55
2023/12/22 08:02:29;;;;;;;37.67;34.58;;;;;;;;;;5047714;28;20506;-54
2023/12/22 08:04:55;;;;;;;39.63;35.55;;;;;;;;;;5038671;28;20022;-51
2023/12/22 08:07:21;;;;;;;39.15;35.67;;;;;;;;;;5047705;28;20139;-53
2023/12/22 08:09:47;;;;;;;38.55;35.55;;;;;;;;;;5048035;28;20036;-53
2023/12/22 08:12:13;;;;;;;38.13;35.22;;;;;;;;;;5047550;28;20033;-52
2023/12/22 08:14:39;;;;;;;38.85;35.17;;;;;;;;;;5047796;28;20028;-52
2023/12/22 08:17:05;;;;;;;37.15;34.35;;;;;;;;;;5047708;28;20048;-56
2023/12/22 08:19:31;;;;;;;36.50;33.70;;;;;;;;;;5043110;28;20095;-57
2023/12/22 08:21:57;;;;;;;34.80;32.10;;;;;;;;;;5030437;28;20044;-56
2023/12/22 08:24:23;;;;;;;34.05;31.45;;;;;;;;;;5050542;28;20398;-55
2023/12/22 08:26:49;;;;;;;32.60;30.10;;;;;;;;;;5030895;28;20399;-55
2023/12/22 08:29:15;;;;;;;32.92;30.27;;;;;;;;;;5049626;28;20025;-56
2023/12/22 08:31:43;;;;;;;28.65;26.35;;;;;;;;;;5051781;28;20096;-56
2023/12/22 08:34:09;;;;;;;27.60;25.40;;;;;;;;;;5051871;28;20076;-55
2023/12/22 08:36:35;;;;;;;25.63;23.52;;;;;;;;;;5030200;28;20061;-53
2023/12/22 08:39:01;;;;;;;24.98;22.88;;;;;;;;;;5047442;28;20078;-54
2023/12/22 08:41:27;;;;;;;23.50;21.50;;;;;;;;;;5051291;28;20119;-52
2023/12/22 08:43:53;;;;;;;21.23;19.33;;;;;;;;;;5051341;28;20520;-54
2023/12/22 08:46:19;;;;;;;20.45;18.55;;;;;;;;;;5050989;28;20064;-50
2023/12/22 08:48:45;;;;;;;21.30;19.40;;;;;;;;;;5051164;28;20090;-51
2023/12/22 08:51:11;;;;;;;20.42;18.55;;;;;;;;;;5054887;28;20036;-54
2023/12/22 08:53:38;;;;;;;20.70;18.80;;;;;;;;;;5043506;28;20023;-53
2023/12/22 08:56:05;;;;;;;19.85;18.05;;;;;;;;;;5029692;28;20402;-51
2023/12/22 08:58:31;;;;;;;20.00;18.20;;;;;;;;;;5043173;28;20544;-51
2023/12/22 09:00:57;;;;;;;20.70;18.80;;;;;;;;;;5051254;28;20033;-56
2023/12/22 09:03:23;;;;;;;21.50;19.40;;;;;;;;;;5050800;28;20850;-52
2023/12/22 09:05:50;;;;;;;21.23;19.33;;;;;;;;;;5050907;28;20049;-54
2023/12/22 09:08:16;;;;;;;20.55;18.65;;;;;;;;;;5050796;28;20013;-52
2023/12/22 09:10:42;;;;;;;20.05;18.13;;;;;;;;;;5050589;28;20025;-49
2023/12/22 09:13:08;;;;;;;18.77;16.98;;;;;;;;;;5029978;28;20037;-48
2023/12/22 09:15:34;;;;;;;18.95;17.15;;;;;;;;;;5050917;28;20021;-54
2023/12/22 09:18:00;;;;;;;21.15;19.25;;;;;;;;;;5050888;28;20029;-50
2023/12/22 09:20:26;;;;;;;17.80;16.00;;;;;;;;;;5050212;28;20029;-53
2023/12/22 09:22:52;;;;;;;17.83;16.02;;;;;;;;;;5050286;28;20398;-50
2023/12/22 09:25:19;;;;;;;17.00;15.30;;;;;;;;;;5050286;28;20017;-51
2023/12/22 09:27:45;;;;;;;16.20;14.50;;;;;;;;;;5050375;28;20021;-56
2023/12/22 09:30:11;;;;;;;17.45;15.70;;;;;;;;;;5049315;28;20409;-52
2023/12/22 09:32:37;;;;;;;18.33;16.42;;;;;;;;;;5050035;28;20104;-56
2023/12/22 09:35:03;;;;;;;16.02;14.32;;;;;;;;;;5050058;28;20096;-54
2023/12/22 09:37:29;;;;;;;17.17;15.48;;;;;;;;;;5049913;28;20076;-53
2023/12/22 09:39:55;;;;;;;17.20;15.50;;;;;;;;;;5050356;28;20021;-54
2023/12/22 09:42:22;;;;;;;16.95;15.25;;;;;;;;;;5049880;28;20029;-54
2023/12/22 09:44:49;;;;;;;27.80;16.38;;;;;;;;;;5049739;28;20125;-51
2023/12/22 09:47:16;;;;;;;17.30;15.57;;;;;;;;;;5049866;28;20053;-51
2023/12/22 09:49:42;;;;;;;17.38;15.68;;;;;;;;;;5052999;28;20074;-50
2023/12/22 09:52:08;;;;;;;17.20;15.50;;;;;;;;;;5030136;28;20034;-51
2023/12/22 09:54:35;;;;;;;18.30;16.40;;;;;;;;;;5030372;28;20434;-56
2023/12/22 09:57:01;;;;;;;17.20;15.50;;;;;;;;;;5030778;28;20029;-49
2023/12/22 09:59:27;;;;;;;16.67;14.98;;;;;;;;;;5049558;28;20056;-50
2023/12/22 10:01:55;;;;;;;16.75;15.05;;;;;;;;;;5036599;28;20034;-53
2023/12/22 10:04:21;;;;;;;16.40;14.70;;;;;;;;;;5067817;28;20044;-51
2023/12/22 10:06:48;;;;;;;16.48;14.77;;;;;;;;;;5069670;28;20048;-55
2023/12/22 10:09:16;;;;;;;16.48;14.77;;;;;;;;;;5069978;28;20032;-55
2023/12/22 10:11:44;;;;;;;16.57;14.87;;;;;;;;;;5051835;28;20035;-53
2023/12/22 10:14:11;;;;;;;16.95;15.25;;;;;;;;;;5070161;28;20039;-50
2023/12/22 10:16:37;;;;;;;18.08;16.27;;;;;;;;;;5069666;28;20035;-51
2023/12/22 10:19:07;;;;;;;19.88;17.88;;;;;;;;;;5041606;28;20069;-50
2023/12/22 10:21:33;;;;;;;20.10;18.20;;;;;;;;;;5029779;28;20029;-50
2023/12/22 10:23:59;;;;;;;21.63;19.63;;;;;;;;;;5029614;28;20026;-53
2023/12/22 10:26:25;;;;;;;22.20;20.10;;;;;;;;;;5029628;28;20029;-52
2023/12/22 10:28:52;;;;;;;25.58;23.48;;;;;;;;;;5028597;28;20057;-53
2023/12/22 10:31:18;;;;;;;28.00;25.80;;;;;;;;;;5029682;28;20087;-53
2023/12/22 10:33:44;;;;;;;27.95;25.70;;;;;;;;;;5029620;28;20029;-55
2023/12/22 10:36:10;;;;;;;26.83;24.63;;;;;;;;;;5029851;28;20083;-53
2023/12/22 10:38:36;;;;;;;25.88;23.70;;;;;;;;;;5029758;28;20104;-51
2023/12/22 10:41:07;;;;;;;31.33;27.20;;;;;;;;;;5027861;28;20087;-51
2023/12/22 10:43:40;;;;;;;27.75;25.55;;;;;;;;;;5028160;28;20123;-53
2023/12/22 10:46:08;;;;;;;26.35;24.15;;;;;;;;;;5029270;28;20076;-52
2023/12/22 10:48:34;;;;;;;25.65;23.55;;;;;;;;;;5029505;28;20044;-54
2023/12/22 10:51:00;;;;;;;24.95;22.85;;;;;;;;;;5029271;28;20061;-52
2023/12/22 10:53:27;;;;;;;25.33;23.23;;;;;;;;;;5029105;28;20063;-55
2023/12/22 10:55:53;;;;;;;24.27;22.20;;;;;;;;;;5029129;28;20036;-52
2023/12/22 10:58:19;;;;;;;24.10;22.00;;;;;;;;;;5028981;28;20029;-52
2023/12/22 11:00:46;;;;;;;23.55;21.55;;;;;;;;;;5026875;28;20081;-52
2023/12/22 11:03:13;;;;;;;23.85;21.85;;;;;;;;;;5028442;28;20416;-52
2023/12/22 11:05:44;;;;;;;22.75;20.75;;;;;;;;;;5028694;28;20083;-54
2023/12/22 11:08:12;;;;;;;20.25;18.35;;;;;;;;;;5028319;28;20116;-55
2023/12/22 11:10:40;;;;;;;19.80;18.00;;;;;;;;;;5027399;28;20044;-49
2023/12/22 11:13:06;;;;;;;19.75;17.95;;;;;;;;;;5028967;28;20029;-54
2023/12/22 11:15:33;;;;;;;19.20;17.40;;;;;;;;;;5028759;28;20108;-53
2023/12/22 11:17:59;;;;;;;18.27;16.48;;;;;;;;;;5027167;28;20029;-54
2023/12/22 11:20:26;;;;;;;17.45;15.75;;;;;;;;;;5028416;28;20372;-56
2023/12/22 11:22:52;;;;;;;17.48;15.77;;;;;;;;;;5028129;28;20583;-54
2023/12/22 11:25:18;;;;;;;16.90;15.20;;;;;;;;;;5028370;28;20486;-53
2023/12/22 11:27:45;;;;;;;16.77;15.07;;;;;;;;;;5028569;28;20028;-54
2023/12/22 11:30:12;;;;;;;16.27;14.57;;;;;;;;;;5028171;28;20026;-56
2023/12/22 11:32:39;;;;;;;15.75;14.05;;;;;;;;;;5028396;28;20482;-54
2023/12/22 11:35:07;;;;;;;15.73;14.02;;;;;;;;;;5027115;28;20517;-53
2023/12/22 11:37:35;;;;;;;15.20;13.38;;;;;;;;;;5028359;28;20486;-53
2023/12/22 11:40:01;;;;;;;15.30;13.55;;;;;;;;;;5028132;28;20041;-53
2023/12/22 11:42:32;;;;;;;15.00;12.93;;;;;;;;;;5027908;28;20627;-53
2023/12/22 11:44:59;;;;;;;15.00;12.85;;;;;;;;;;5027754;28;20084;-50
2023/12/22 11:47:28;;;;;;;15.15;13.25;;;;;;;;;;5026906;28;20068;-50
2023/12/22 11:49:54;;;;;;;14.90;12.48;;;;;;;;;;5029013;28;20419;-54
2023/12/22 11:52:25;;;;;;;14.77;12.38;;;;;;;;;;5028189;28;20049;-53
2023/12/22 11:54:54;;;;;;;15.00;12.73;;;;;;;;;;5032390;28;20022;-53
2023/12/22 11:57:29;;;;;;;15.05;12.80;;;;;;;;;;5032304;28;20044;-53
2023/12/22 11:59:59;;;;;;;14.70;12.23;;;;;;;;;;5032026;28;20026;-50
2023/12/22 12:02:26;;;;;;;14.85;12.27;;;;;;;;;;5031794;28;20100;-56
2023/12/22 12:04:52;;;;;;;14.80;12.05;;;;;;;;;;5032218;28;20452;-49
2023/12/22 12:07:39;;;;;;;14.88;12.52;;;;;;;;;;5032029;28;20112;-53
2023/12/22 12:10:05;;;;;;;14.70;11.95;;;;;;;;;;5031965;28;20032;-53
2023/12/22 12:12:34;;;;;;;14.80;12.25;;;;;;;;;;5032113;28;20060;-49
2023/12/22 12:14:59;;;;;;;;;;;;;;;;;;5032100;28;20040;-54
2023/12/22 12:17:25;;;;;;;14.80;12.20;;;;;;;;;;5031924;28;19905;-54
2023/12/22 12:19:51;;;;;;;14.63;11.77;;;;;;;;;;5031704;28;20037;-52
2023/12/22 12:22:18;;;;;;;14.60;11.68;;;;;;;;;;5031643;28;20060;-52
2023/12/22 12:24:45;;;;;;;14.80;12.25;;;;;;;;;;5031677;28;20225;-54
2023/12/22 12:27:11;;;;;;;14.88;12.38;;;;;;;;;;5031643;28;20029;-52
2023/12/22 12:29:38;;;;;;;18.92;12.60;;;;;;;;;;5031776;28;20180;-56
2023/12/22 12:32:05;;;;;;;14.60;11.57;;;;;;;;;;5031679;28;20459;-50
2023/12/22 12:34:31;;;;;;;14.70;12.05;;;;;;;;;;5030010;28;20386;-48
2023/12/22 12:36:58;;;;;;;14.80;12.20;;;;;;;;;;5031456;28;20041;-53
2023/12/22 12:39:28;;;;;;;14.80;12.23;;;;;;;;;;5031167;28;20075;-54
2023/12/22 12:41:56;;;;;;;14.73;11.98;;;;;;;;;;5031131;28;20017;-54
2023/12/22 12:44:23;;;;;;;14.60;11.60;;;;;;;;;;5031625;28;20021;-54
2023/12/22 12:46:49;;;;;;;14.70;12.07;;;;;;;;;;5032099;28;20033;-52
2023/12/22 12:49:15;;;;;;;14.60;11.68;;;;;;;;;;5031315;28;20105;-53
2023/12/22 12:51:50;;;;;;;14.70;12.00;;;;;;;;;;5030953;28;20392;-56
2023/12/22 12:54:16;;;;;;;14.88;12.30;;;;;;;;;;5029705;28;20043;-55
2023/12/22 12:56:44;;;;;;;15.75;11.98;;;;;;;;;;5031157;28;20038;-53
2023/12/22 12:59:10;;;;;;;15.35;13.52;;;;;;;;;;5031259;28;20029;-54
2023/12/22 13:01:40;;;;;;;15.30;13.50;;;;;;;;;;5030707;28;20068;-55
2023/12/22 13:04:06;;;;;;;15.77;14.07;;;;;;;;;;5029484;28;20047;-56
2023/12/22 13:06:32;;;;;;;15.55;13.85;;;;;;;;;;5030794;28;20024;-52
2023/12/22 13:08:58;;;;;;;15.30;13.60;;;;;;;;;;5031400;28;20026;-54
2023/12/22 13:11:26;;;;;;;15.00;12.95;;;;;;;;;;5030744;28;20041;-51
2023/12/22 13:13:52;;;;;;;15.40;13.50;;;;;;;;;;5030890;28;20025;-53
2023/12/22 13:16:22;;;;;;;18.60;14.00;;;;;;;;;;5029506;28;20037;-51
2023/12/22 13:18:49;;;;;;;16.00;14.30;;;;;;;;;;5029510;28;20036;-53
2023/12/22 13:21:15;;;;;;;16.98;15.27;;;;;;;;;;5030971;28;20034;-51
2023/12/22 13:23:41;;;;;;;17.33;15.63;;;;;;;;;;5030738;28;20028;-52
2023/12/22 13:26:18;;;;;;;18.80;17.00;;;;;;;;;;5030786;28;20112;-54
2023/12/22 13:28:44;;;;;;;20.52;18.63;;;;;;;;;;5029188;28;20022;-50
2023/12/22 13:31:14;;;;;;;21.45;19.55;;;;;;;;;;5049752;28;20055;-54
2023/12/22 13:33:40;;;;;;;21.65;19.75;;;;;;;;;;5054010;28;20017;-53
2023/12/22 13:36:06;;;;;;;22.67;20.67;;;;;;;;;;5049822;28;20271;-53
2023/12/22 13:38:33;;;;;;;29.90;20.10;;;;;;;;;;5053635;28;20316;-53
2023/12/22 13:41:01;;;;;;;21.58;19.67;;;;;;;;;;5038772;28;20032;-52
2023/12/22 13:43:30;;;;;;;20.65;18.75;;;;;;;;;;5029959;28;20069;-52
2023/12/22 13:45:56;;;;;;;22.50;20.40;;;;;;;;;;5036684;28;20393;-53
2023/12/22 13:48:23;;;;;;;21.10;19.20;;;;;;;;;;5050121;28;20457;-47
2023/12/22 13:50:57;;;;;;;21.05;19.15;;;;;;;;;;5028314;28;20391;-57
2023/12/22 13:53:23;;;;;;;19.23;17.42;;;;;;;;;;5029690;28;20029;-52
2023/12/22 13:56:15;;;;;;;19.10;17.27;;;;;;;;;;5049419;28;20090;-52
2023/12/22 13:58:45;;;;;;;19.50;17.70;;;;;;;;;;5046130;28;20029;-56
2023/12/22 14:01:15;;;;;;;19.90;18.10;;;;;;;;;;5048828;28;20021;-55
2023/12/22 14:03:42;;;;;;;18.48;16.67;;;;;;;;;;5031966;28;20021;-55
2023/12/22 14:06:09;;;;;;;19.20;17.40;;;;;;;;;;5049199;28;20021;-49
2023/12/22 14:08:35;;;;;;;18.48;16.67;;;;;;;;;;5050001;28;20053;-55
2023/12/22 14:11:01;;;;;;;18.67;16.88;;;;;;;;;;5049647;28;20096;-53
2023/12/22 14:13:27;;;;;;;19.35;17.55;;;;;;;;;;5050037;28;20029;-54
2023/12/22 14:15:53;;;;;;;20.58;18.58;;;;;;;;;;5048692;28;20032;-51
2023/12/22 14:18:19;;;;;;;19.45;17.65;;;;;;;;;;5049278;28;20025;-54
2023/12/22 14:20:46;;;;;;;20.02;18.23;;;;;;;;;;5036265;28;20084;-51